Impacts TAF Board
For situational awareness. Not to be used for flight planning purposes.
IDs:

KMCO - Orlando Intl, FL, US

Issued at 1501 UTC 01 Mar 2021
Updated at 1729 UTC 01 Mar 2021
Potential Impact None Slight Moderate High
Time1653Z 01/18Z 01/19Z 01/20Z 01/21Z 01/22Z 01/23Z 02/00Z 02/01Z 02/02Z 02/03Z 02/04Z 02/05Z 02/06Z>>
Type OBS PRVL PRVL PRVL PRVL PRVL PRVL PRVL PRVL PRVL PRVL PRVL PRVL PRVL
VIS 10 >6 >6 >6 >6 >6 >6 >6 >6 >6 >6 >6 >6 >6
CIG 30 250 250 250 250 250 250 250 120 120 120 120 120 100
Cover BKN BKN BKN BKN BKN BKN BKN BKN BKN BKN BKN BKN BKN BKN
FltCat MVFR VFR VFR VFR VFR VFR VFR VFR VFR VFR VFR VFR VFR VFR
WX -- -- -- -- -- -- -- -- -- -- -- -- -- --
WDir 230 200 200 200 200 200 200 200 250 250 300 300 300 350
WSpd 12 14 14 14 14 14 14 14 4 4 5 5 5 5
WGst -- -- -- -- -- -- -- -- -- -- -- -- -- --
Raw TAF
KMCO 011501Z 0115/0218 18014KT P6SM SCT020 SCT250
  FM011600 20014KT P6SM SCT020 BKN250
  FM020100 25004KT P6SM SCT050 BKN120
  FM020300 30005KT P6SM SCT050 BKN120
  FM020600 35005KT P6SM SCT050 BKN100


Raw METAR
KMCO 011653Z 23012KT 10SM BKN030 27/19 A3009 RMK AO2 SLP189 T02720194
KMCO 011553Z 20013G19KT 10SM SCT026 SCT300 28/20 A3011 RMK AO2 SLP195 T02780200
KMCO 011546Z 21011KT 10SM SCT026 SCT300 27/20 A3012 RMK AO2 T02670200
KMCO 011515Z 19012KT 10SM BKN021 BKN300 26/21 A3012 RMK AO2 T02610206
KMCO 011453Z 19014KT 10SM SCT021 BKN300 26/21 A3012 RMK AO2 SLP198 T02560206 50008

METAR Board
Radar Display
Forecast Discussion
For situational awareness. Not to be used for flight planning purposes.